Terminal Aerodrome Forecast
Issued by NWS

Home | Current Version | Previous Version | Text Only | Print | Product List | Glossary On
Versions: 1 2 3 4 5 6 7 8 9 10 11 12 13
594
FTPA31 PHFO 251734
TAFHJH
TAF
PHJH 251734Z 2518/2618 04012KT P6SM FEW030
     FM252000 05014G22KT P6SM FEW030 SCT045
     FM260000 05016G26KT P6SM FEW030 SCT045
     FM260500 04011KT P6SM FEW030
      AMD NOT SKED 2604/2616=

USA.gov is the U.S. government's official web portal to all federal, state and local government web resources and services.